Time;durP1;ratioP1;P1;durP2;ratioP2;P2;SDS_P1;SDS_P2;PMS_P1;PMS_P2;Temp;Humidity;BMP_temperature;BMP_pressure;BME280_temperature;BME280_humidity;BME280_pressure;Samples;Min_cycle;Max_cycle;Signal;HPM_P1;HPM_P2
2023/12/26 00:01:09;;;;;;;4.43;2.23;;;5.50;99.90;;;;;;5016673;28;20030;-83
2023/12/26 00:03:34;;;;;;;5.07;2.23;;;5.50;99.90;;;;;;5017032;28;20036;-84
2023/12/26 00:06:00;;;;;;;4.83;2.50;;;5.40;99.90;;;;;;5018172;28;20068;-84
2023/12/26 00:08:25;;;;;;;4.23;2.10;;;5.40;99.90;;;;;;5018470;28;20061;-83
2023/12/26 00:10:51;;;;;;;4.17;2.00;;;5.30;99.90;;;;;;5017777;28;20608;-83
2023/12/26 00:13:16;;;;;;;5.40;2.13;;;5.30;99.90;;;;;;4998825;28;20044;-83
2023/12/26 00:15:42;;;;;;;2.80;1.70;;;5.20;99.90;;;;;;5018272;28;20116;-83
2023/12/26 00:18:07;;;;;;;3.90;1.80;;;5.20;99.90;;;;;;5016534;28;20040;-84
2023/12/26 00:20:33;;;;;;;2.63;1.63;;;5.20;99.90;;;;;;5018044;28;20037;-84
2023/12/26 00:22:58;;;;;;;3.13;2.00;;;5.20;99.90;;;;;;5017014;28;20030;-83
2023/12/26 00:25:24;;;;;;;3.53;1.63;;;5.20;99.90;;;;;;5016237;28;20029;-83
2023/12/26 00:27:49;;;;;;;4.90;1.70;;;5.20;99.90;;;;;;5016736;28;20093;-84
2023/12/26 00:30:15;;;;;;;5.53;1.80;;;5.20;99.90;;;;;;4998007;28;20098;-83
2023/12/26 00:32:40;;;;;;;4.23;1.93;;;5.20;99.90;;;;;;5017610;28;20064;-83
2023/12/26 00:35:06;;;;;;;3.83;2.10;;;5.20;99.90;;;;;;5016712;28;20059;-83
2023/12/26 00:37:32;;;;;;;5.33;1.87;;;5.20;99.90;;;;;;5016885;28;20671;-83
2023/12/26 00:39:58;;;;;;;3.83;1.77;;;5.20;99.90;;;;;;5016760;28;20026;-83
2023/12/26 00:42:23;;;;;;;3.57;1.90;;;5.30;99.90;;;;;;5017098;28;20614;-82
2023/12/26 00:44:49;;;;;;;4.57;1.80;;;5.30;99.90;;;;;;5018423;28;20044;-82
2023/12/26 00:47:14;;;;;;;7.70;2.43;;;5.40;99.90;;;;;;4999501;28;20033;-82
2023/12/26 00:49:41;;;;;;;4.93;1.90;;;5.50;99.90;;;;;;5019762;28;20034;-83
2023/12/26 00:52:07;;;;;;;4.67;1.90;;;5.60;99.90;;;;;;5018336;28;20060;-84
2023/12/26 00:54:32;;;;;;;6.77;2.40;;;5.60;99.90;;;;;;5015700;28;20033;-83
2023/12/26 00:56:58;;;;;;;5.47;1.90;;;5.70;99.90;;;;;;5019019;28;20037;-83
2023/12/26 00:59:23;;;;;;;5.33;1.80;;;5.80;99.90;;;;;;5017782;28;20042;-83
2023/12/26 01:01:49;;;;;;;3.53;1.80;;;5.90;99.90;;;;;;5019706;28;20056;-83
2023/12/26 01:04:15;;;;;;;3.47;1.80;;;5.90;99.90;;;;;;5018698;28;20492;-83
2023/12/26 01:06:40;;;;;;;5.00;2.00;;;6.00;99.90;;;;;;5017034;28;20033;-82
2023/12/26 01:09:06;;;;;;;3.87;1.60;;;6.00;99.90;;;;;;5017846;28;20033;-82
2023/12/26 01:11:31;;;;;;;4.13;1.97;;;6.00;99.90;;;;;;5018349;28;20035;-83
2023/12/26 01:13:57;;;;;;;4.53;2.17;;;6.00;99.90;;;;;;5001505;28;20284;-83
2023/12/26 01:16:27;;;;;;;3.50;1.80;;;6.00;99.90;;;;;;5015699;28;20033;-83
2023/12/26 01:18:53;;;;;;;3.40;1.77;;;6.00;99.90;;;;;;5017409;28;20033;-83
2023/12/26 01:21:18;;;;;;;4.97;2.07;;;5.90;99.90;;;;;;4999647;28;20036;-83
2023/12/26 01:23:44;;;;;;;2.83;1.87;;;5.90;99.90;;;;;;5019168;28;20060;-83
2023/12/26 01:26:09;;;;;;;4.90;2.07;;;5.90;99.90;;;;;;4998152;28;20044;-84
2023/12/26 01:28:35;;;;;;;3.30;1.63;;;5.90;99.90;;;;;;5016835;28;20040;-83
2023/12/26 01:31:00;;;;;;;5.43;1.70;;;5.80;99.90;;;;;;5017927;28;20669;-83
2023/12/26 01:33:26;;;;;;;5.13;1.83;;;5.70;99.90;;;;;;5018754;28;20030;-83
2023/12/26 01:35:51;;;;;;;3.17;1.80;;;5.70;99.90;;;;;;5017824;28;20492;-83
2023/12/26 01:38:17;;;;;;;6.33;1.70;;;5.60;99.90;;;;;;5016308;28;20029;-83
2023/12/26 01:40:42;;;;;;;6.40;2.00;;;5.50;99.90;;;;;;4998027;28;20034;-83
2023/12/26 01:43:08;;;;;;;2.57;1.70;;;5.50;99.90;;;;;;5017862;28;21143;-83
2023/12/26 01:45:33;;;;;;;5.13;2.30;;;5.40;99.90;;;;;;5015406;28;20049;-83
2023/12/26 01:48:00;;;;;;;5.43;2.13;;;5.30;99.90;;;;;;5014235;28;20042;-83
2023/12/26 01:50:26;;;;;;;4.20;2.03;;;5.20;99.90;;;;;;5015192;28;20040;-83
2023/12/26 01:52:53;;;;;;;4.37;2.20;;;5.10;99.90;;;;;;5015896;28;20114;-83
2023/12/26 01:55:20;;;;;;;5.77;2.20;;;5.10;99.90;;;;;;5013655;28;20033;-83
2023/12/26 01:57:46;;;;;;;5.43;2.10;;;5.00;99.90;;;;;;5016587;28;20095;-83
2023/12/26 02:00:12;;;;;;;3.97;2.10;;;4.90;99.90;;;;;;5017711;28;20113;-83
2023/12/26 02:02:38;;;;;;;8.20;3.70;;;4.80;99.90;;;;;;5017238;28;20910;-83
2023/12/26 02:05:05;;;;;;;5.53;2.60;;;4.70;99.90;;;;;;5003255;28;20083;-83
2023/12/26 02:07:31;;;;;;;3.97;2.60;;;4.60;99.90;;;;;;5022873;28;20033;-83
2023/12/26 02:09:56;;;;;;;6.90;3.40;;;4.50;99.90;;;;;;5006221;28;20033;-83
2023/12/26 02:12:22;;;;;;;8.27;3.67;;;4.40;99.90;;;;;;5022364;28;20061;-84
2023/12/26 02:14:48;;;;;;;6.87;3.40;;;4.30;99.90;;;;;;5021738;28;20057;-83
2023/12/26 02:17:22;;;;;;;7.70;3.13;;;4.30;99.90;;;;;;5020361;28;20033;-83
2023/12/26 02:19:48;;;;;;;10.37;3.80;;;4.20;99.90;;;;;;5004342;28;20029;-83
2023/12/26 02:22:13;;;;;;;7.50;3.50;;;4.20;99.90;;;;;;5021984;28;20096;-83
2023/12/26 02:24:42;;;;;;;5.50;2.87;;;4.10;99.90;;;;;;5019063;28;20118;-83
2023/12/26 02:27:16;;;;;;;5.67;2.67;;;4.10;99.90;;;;;;5017177;28;20076;-83
2023/12/26 02:29:50;;;;;;;6.23;2.50;;;4.10;99.90;;;;;;5020840;28;20025;-83
2023/12/26 02:32:19;;;;;;;6.13;2.80;;;4.00;99.90;;;;;;5019329;28;20045;-83
2023/12/26 02:34:46;;;;;;;15.67;8.80;;;4.00;99.90;;;;;;5020537;28;20030;-83
2023/12/26 02:37:12;;;;;;;20.43;11.67;;;4.00;99.90;;;;;;5001792;28;20488;-83
2023/12/26 02:39:39;;;;;;;20.10;10.03;;;3.90;99.90;;;;;;5018840;28;20049;-83
2023/12/26 02:42:05;;;;;;;13.53;7.53;;;3.90;99.90;;;;;;5018163;28;20034;-83
2023/12/26 02:44:30;;;;;;;8.37;4.20;;;3.80;99.90;;;;;;5019793;28;20123;-83
2023/12/26 02:46:56;;;;;;;6.87;2.93;;;3.80;99.90;;;;;;5017924;28;20049;-83
2023/12/26 02:49:21;;;;;;;7.33;2.60;;;3.80;99.90;;;;;;5019336;28;20057;-83
2023/12/26 02:51:47;;;;;;;5.53;2.47;;;3.70;99.90;;;;;;5018779;28;20034;-83
2023/12/26 02:54:12;;;;;;;7.23;3.10;;;3.70;99.90;;;;;;5018640;28;20037;-83
2023/12/26 02:56:38;;;;;;;4.23;2.20;;;3.70;99.90;;;;;;5019662;28;20126;-83
2023/12/26 02:59:03;;;;;;;9.77;3.47;;;3.70;99.90;;;;;;5019829;28;20042;-83
2023/12/26 03:01:29;;;;;;;8.60;4.30;;;3.60;99.90;;;;;;5019246;28;20026;-83
2023/12/26 03:03:54;;;;;;;12.13;6.20;;;3.50;99.90;;;;;;5017372;28;20055;-83
2023/12/26 03:06:20;;;;;;;15.33;7.53;;;3.50;99.90;;;;;;5021395;28;20034;-83
2023/12/26 03:08:45;;;;;;;12.93;6.43;;;3.40;99.90;;;;;;5022812;28;20121;-82
2023/12/26 03:11:11;;;;;;;11.03;5.93;;;3.30;99.90;;;;;;5022826;28;20047;-83
2023/12/26 03:13:36;;;;;;;12.53;5.10;;;3.30;99.90;;;;;;5022825;28;20040;-82
2023/12/26 03:16:02;;;;;;;14.30;5.33;;;3.30;99.90;;;;;;5023229;28;20026;-83
2023/12/26 03:18:27;;;;;;;9.90;5.33;;;3.20;99.90;;;;;;5023638;28;20112;-83
2023/12/26 03:20:53;;;;;;;9.13;4.40;;;3.20;99.90;;;;;;5022389;28;20140;-83
2023/12/26 03:23:18;;;;;;;5.63;3.00;;;3.10;99.90;;;;;;5023840;28;20044;-83
2023/12/26 03:25:44;;;;;;;6.13;2.70;;;3.10;99.90;;;;;;5023442;28;20541;-83
2023/12/26 03:28:10;;;;;;;5.87;2.50;;;3.10;99.90;;;;;;5022400;28;20053;-83
2023/12/26 03:30:35;;;;;;;5.70;2.30;;;3.10;99.90;;;;;;5021177;28;20037;-82
2023/12/26 03:33:01;;;;;;;6.97;2.10;;;3.10;99.90;;;;;;5024165;28;20018;-83
2023/12/26 03:35:26;;;;;;;6.00;2.40;;;3.10;99.90;;;;;;5022257;28;20034;-83
2023/12/26 03:37:52;;;;;;;5.97;2.10;;;3.20;99.90;;;;;;5004819;28;20038;-83
2023/12/26 03:40:17;;;;;;;2.30;1.57;;;3.20;99.90;;;;;;5004624;28;20913;-82
2023/12/26 03:42:43;;;;;;;6.13;1.97;;;3.30;99.90;;;;;;5021254;28;20022;-83
2023/12/26 03:45:09;;;;;;;3.53;1.73;;;3.40;99.90;;;;;;5006469;28;20056;-83
2023/12/26 03:47:34;;;;;;;4.37;1.87;;;3.60;99.90;;;;;;5022991;28;20999;-83
2023/12/26 03:50:00;;;;;;;4.43;2.00;;;3.90;99.90;;;;;;5023479;28;20025;-83
2023/12/26 03:52:26;;;;;;;3.67;1.97;;;4.00;99.90;;;;;;5022978;28;20036;-83
2023/12/26 03:54:52;;;;;;;3.93;1.80;;;4.10;99.90;;;;;;5022982;28;20030;-83
2023/12/26 03:57:18;;;;;;;4.43;2.00;;;4.20;99.90;;;;;;5022631;28;20031;-83
2023/12/26 03:59:43;;;;;;;4.50;1.80;;;4.30;99.90;;;;;;5022750;28;20096;-83
2023/12/26 04:02:09;;;;;;;4.40;2.20;;;4.40;99.90;;;;;;5022904;28;20207;-82
2023/12/26 04:04:34;;;;;;;5.13;1.80;;;4.50;99.90;;;;;;5022887;28;20120;-82
2023/12/26 04:07:00;;;;;;;4.40;2.40;;;4.60;99.90;;;;;;5019868;28;20022;-82
2023/12/26 04:09:26;;;;;;;5.10;1.80;;;4.60;99.90;;;;;;5022011;28;20060;-82
2023/12/26 04:11:52;;;;;;;3.73;1.90;;;4.60;99.90;;;;;;5020831;28;20112;-83
2023/12/26 04:14:17;;;;;;;3.50;1.73;;;4.80;99.90;;;;;;5020880;28;20040;-83
2023/12/26 04:16:43;;;;;;;5.23;1.97;;;4.90;99.90;;;;;;5020569;28;20109;-82
2023/12/26 04:19:08;;;;;;;3.90;1.70;;;5.10;99.90;;;;;;5021023;28;20060;-83
2023/12/26 04:21:34;;;;;;;4.10;1.87;;;5.20;99.90;;;;;;5021027;28;20047;-83
2023/12/26 04:23:59;;;;;;;4.80;1.80;;;5.40;99.90;;;;;;5018814;28;20144;-82
2023/12/26 04:26:25;;;;;;;4.53;1.77;;;5.60;99.90;;;;;;5021893;28;20045;-82
2023/12/26 04:28:50;;;;;;;3.10;1.63;;;5.70;99.90;;;;;;5022732;28;20124;-82
2023/12/26 04:31:16;;;;;;;4.43;1.80;;;5.80;99.90;;;;;;5003403;28;20037;-82
2023/12/26 04:33:41;;;;;;;4.87;1.80;;;6.10;99.90;;;;;;5021387;28;20044;-82
2023/12/26 04:36:07;;;;;;;4.87;1.57;;;6.20;99.90;;;;;;5021635;28;20033;-83
2023/12/26 04:38:32;;;;;;;4.50;2.47;;;6.20;99.90;;;;;;5023092;28;20100;-82
2023/12/26 04:40:58;;;;;;;2.73;2.13;;;6.30;99.90;;;;;;5020132;28;20122;-83
2023/12/26 04:43:23;;;;;;;2.90;1.77;;;6.40;99.90;;;;;;5022494;28;20033;-82
2023/12/26 04:45:49;;;;;;;3.40;1.70;;;6.50;99.90;;;;;;5020542;28;20060;-83
2023/12/26 04:48:15;;;;;;;5.17;1.73;;;6.50;99.90;;;;;;5021651;28;20045;-82
2023/12/26 04:50:40;;;;;;;5.60;1.80;;;6.50;99.90;;;;;;5022398;28;20106;-82
2023/12/26 04:53:06;;;;;;;2.87;1.70;;;6.50;99.90;;;;;;5022651;28;20053;-82
2023/12/26 04:55:32;;;;;;;3.53;1.60;;;6.50;99.90;;;;;;5021497;28;20037;-82
2023/12/26 04:57:58;;;;;;;3.53;1.63;;;6.50;99.90;;;;;;5021069;28;20037;-82
2023/12/26 05:00:23;;;;;;;2.90;1.60;;;6.60;99.90;;;;;;5022045;28;20535;-82
2023/12/26 05:02:50;;;;;;;2.90;1.80;;;6.70;99.90;;;;;;5020985;28;20026;-82
2023/12/26 05:05:16;;;;;;;3.27;1.50;;;6.70;99.90;;;;;;5019896;28;20037;-83
2023/12/26 05:07:41;;;;;;;4.60;1.83;;;6.70;99.90;;;;;;5019791;28;20030;-83
2023/12/26 05:10:07;;;;;;;2.93;1.60;;;6.60;99.90;;;;;;5020155;28;20053;-82
2023/12/26 05:12:32;;;;;;;3.50;1.67;;;6.60;99.90;;;;;;5020043;28;20101;-82
2023/12/26 05:14:58;;;;;;;4.27;1.60;;;6.60;99.90;;;;;;5021659;28;20041;-82
2023/12/26 05:17:24;;;;;;;4.00;1.80;;;6.60;99.90;;;;;;5021465;28;20040;-83
2023/12/26 05:19:49;;;;;;;3.37;2.00;;;6.60;99.90;;;;;;5021420;28;20061;-82
2023/12/26 05:22:15;;;;;;;2.47;1.60;;;6.60;99.90;;;;;;5021370;28;20033;-83
2023/12/26 05:24:40;;;;;;;3.47;1.73;;;6.60;99.90;;;;;;5019872;28;20125;-83
2023/12/26 05:27:06;;;;;;;2.17;1.50;;;6.60;99.90;;;;;;5020143;28;20033;-82
2023/12/26 05:29:31;;;;;;;2.90;1.53;;;6.50;99.90;;;;;;5020877;28;20029;-82
2023/12/26 05:31:57;;;;;;;2.13;1.70;;;6.60;99.90;;;;;;5019699;28;20120;-83
2023/12/26 05:34:23;;;;;;;2.97;1.47;;;6.50;99.90;;;;;;5019897;28;20054;-83
2023/12/26 05:36:48;;;;;;;3.30;1.60;;;6.60;99.90;;;;;;5019144;28;20044;-83
2023/12/26 05:39:14;;;;;;;5.13;1.97;;;6.50;99.90;;;;;;5019553;28;20038;-82
2023/12/26 05:41:42;;;;;;;4.50;1.60;;;6.50;99.90;;;;;;5020271;28;20147;-83
2023/12/26 05:44:08;;;;;;;2.63;1.73;;;6.40;99.90;;;;;;5019063;28;20138;-82
2023/12/26 05:46:34;;;;;;;3.50;1.50;;;6.40;99.90;;;;;;5018984;28;20133;-82
2023/12/26 05:48:59;;;;;;;2.93;1.80;;;6.50;99.90;;;;;;5019441;28;20816;-83
2023/12/26 05:51:25;;;;;;;4.03;1.60;;;6.30;99.90;;;;;;5020401;28;20711;-82
2023/12/26 05:53:51;;;;;;;6.60;2.00;;;6.40;99.90;;;;;;5021541;28;20082;-83
2023/12/26 05:56:18;;;;;;;5.37;1.70;;;6.30;99.90;;;;;;5018958;28;20738;-83
2023/12/26 05:58:44;;;;;;;4.93;1.70;;;6.30;99.90;;;;;;5020082;28;20045;-83
2023/12/26 06:01:10;;;;;;;3.53;1.27;;;6.20;99.90;;;;;;5022823;28;20030;-83
2023/12/26 06:03:37;;;;;;;5.23;1.60;;;6.20;99.90;;;;;;5024168;28;20061;-83
2023/12/26 06:06:03;;;;;;;3.80;1.60;;;6.10;99.90;;;;;;5025013;28;20030;-83
2023/12/26 06:08:28;;;;;;;2.70;1.70;;;6.00;99.90;;;;;;5024357;28;20025;-83
2023/12/26 06:10:54;;;;;;;3.53;1.70;;;5.90;99.90;;;;;;5021242;28;20022;-86
2023/12/26 06:13:19;;;;;;;5.67;2.60;;;5.90;99.90;;;;;;5011039;28;20151;-84
2023/12/26 06:15:45;;;;;;;4.47;1.70;;;6.00;99.90;;;;;;5012568;28;20052;-84
2023/12/26 06:18:10;;;;;;;3.87;1.70;;;5.90;99.90;;;;;;5012252;28;20053;-85
2023/12/26 06:20:36;;;;;;;3.73;1.70;;;5.80;99.90;;;;;;5013580;28;20048;-85
2023/12/26 06:23:02;;;;;;;3.53;1.60;;;5.70;99.90;;;;;;4995034;28;20152;-85
2023/12/26 06:25:28;;;;;;;3.90;1.73;;;5.70;99.90;;;;;;4994078;28;20029;-84
2023/12/26 06:27:53;;;;;;;5.10;2.00;;;5.60;99.90;;;;;;5012369;28;20044;-86
2023/12/26 06:30:19;;;;;;;3.67;1.90;;;5.60;99.90;;;;;;5011735;28;20143;-85
2023/12/26 06:32:45;;;;;;;3.63;1.93;;;5.60;99.90;;;;;;5012457;28;20029;-84
2023/12/26 06:35:10;;;;;;;4.20;1.70;;;5.50;99.90;;;;;;5012060;28;20041;-85
2023/12/26 06:37:36;;;;;;;1.97;1.60;;;5.50;99.90;;;;;;5012413;28;20022;-86
2023/12/26 06:40:01;;;;;;;4.73;2.10;;;5.50;99.90;;;;;;5011383;28;20761;-85
2023/12/26 06:42:27;;;;;;;3.93;1.73;;;5.50;99.90;;;;;;5016148;28;20042;-84
2023/12/26 06:44:53;;;;;;;3.10;1.57;;;5.40;99.90;;;;;;5016569;28;20028;-86
2023/12/26 06:47:18;;;;;;;4.93;1.83;;;5.30;99.90;;;;;;5015460;28;20120;-85
2023/12/26 06:49:45;;;;;;;3.57;1.73;;;5.30;99.90;;;;;;5015306;28;20033;-85
2023/12/26 06:52:12;;;;;;;3.73;1.60;;;5.30;99.90;;;;;;5014032;28;20038;-85
2023/12/26 06:54:38;;;;;;;4.10;1.97;;;5.20;99.90;;;;;;5017170;28;20617;-86
2023/12/26 06:57:07;;;;;;;3.20;1.67;;;5.20;99.90;;;;;;5016243;28;20049;-84
2023/12/26 06:59:33;;;;;;;3.00;2.03;;;5.20;99.90;;;;;;4998759;28;20038;-85
2023/12/26 07:01:58;;;;;;;2.93;1.73;;;5.20;99.90;;;;;;5016368;28;20031;-85
2023/12/26 07:04:24;;;;;;;7.93;1.70;;;5.20;99.90;;;;;;5015832;28;20037;-85
2023/12/26 07:06:50;;;;;;;3.97;1.80;;;5.20;99.90;;;;;;5015934;28;20408;-84
2023/12/26 07:09:15;;;;;;;3.80;1.77;;;5.20;99.90;;;;;;5016811;28;20053;-85
2023/12/26 07:11:41;;;;;;;4.77;1.80;;;5.20;99.90;;;;;;5016601;28;20501;-85
2023/12/26 07:14:06;;;;;;;4.13;1.70;;;5.20;99.90;;;;;;5016301;28;20026;-85
2023/12/26 07:16:33;;;;;;;5.30;1.80;;;5.30;99.90;;;;;;5015088;28;20060;-84
2023/12/26 07:18:59;;;;;;;5.40;2.10;;;5.30;99.90;;;;;;5013260;28;20467;-84
2023/12/26 07:21:28;;;;;;;4.00;1.93;;;5.30;99.90;;;;;;5012158;28;20122;-85
2023/12/26 07:23:53;;;;;;;3.97;1.50;;;5.30;99.90;;;;;;5012539;28;21194;-85
2023/12/26 07:26:21;;;;;;;3.10;1.70;;;5.30;99.90;;;;;;5011961;28;20041;-85
2023/12/26 07:28:47;;;;;;;2.70;1.60;;;5.30;99.90;;;;;;5012935;28;20038;-85
2023/12/26 07:31:25;;;;;;;5.17;2.07;;;5.30;99.90;;;;;;5014277;28;20175;-85
2023/12/26 07:33:51;;;;;;;3.20;1.43;;;5.30;99.90;;;;;;5015806;28;20531;-85
2023/12/26 07:36:17;;;;;;;4.40;1.80;;;5.30;99.90;;;;;;5017298;28;20030;-85
2023/12/26 07:38:43;;;;;;;2.90;1.60;;;5.30;99.90;;;;;;5015928;28;20506;-85
2023/12/26 07:41:09;;;;;;;3.83;2.10;;;5.40;99.90;;;;;;5016187;28;20097;-86
2023/12/26 07:43:34;;;;;;;6.63;2.20;;;5.50;99.90;;;;;;5015730;28;20129;-80
2023/12/26 07:46:00;;;;;;;5.10;1.90;;;5.60;99.90;;;;;;5014300;28;20030;-82
2023/12/26 07:48:26;;;;;;;4.00;1.80;;;5.60;99.90;;;;;;5016429;28;20037;-82
2023/12/26 07:50:51;;;;;;;3.83;1.97;;;5.60;99.90;;;;;;5015782;28;20048;-81
2023/12/26 07:53:17;;;;;;;3.93;1.70;;;5.70;99.90;;;;;;5014501;28;20032;-82
2023/12/26 07:55:42;;;;;;;4.60;1.67;;;5.70;99.90;;;;;;5014894;28;20041;-82
2023/12/26 07:58:08;;;;;;;4.60;2.07;;;5.80;99.90;;;;;;5011233;28;20045;-82
2023/12/26 08:00:51;;;;;;;4.33;2.10;;;5.90;99.90;;;;;;5015896;28;20030;-81
2023/12/26 08:03:38;;;;;;;5.47;1.73;;;5.90;99.90;;;;;;5019832;28;20030;-82
2023/12/26 08:06:39;;;;;;;4.87;1.77;;;6.00;99.90;;;;;;5019782;28;20893;-82
2023/12/26 08:09:12;;;;;;;3.83;1.90;;;6.20;99.90;;;;;;5016188;28;20143;-81
2023/12/26 08:12:00;;;;;;;4.33;1.80;;;6.20;99.90;;;;;;5015612;28;20030;-81
2023/12/26 08:14:25;;;;;;;6.87;1.87;;;6.20;99.90;;;;;;5018070;28;20097;-82
2023/12/26 08:16:56;;;;;;;5.80;1.90;;;6.40;99.90;;;;;;5020145;28;20045;-81
2023/12/26 08:19:39;;;;;;;;;;;;;;;;;;;;;
2023/12/26 08:22:19;;;;;;;5.03;1.80;;;6.40;99.90;;;;;;5020225;28;20026;-82
2023/12/26 08:24:47;;;;;;;5.43;1.83;;;6.40;99.90;;;;;;5019943;28;20029;-82
2023/12/26 08:27:13;;;;;;;5.63;1.80;;;6.60;99.90;;;;;;5020983;28;20026;-82
2023/12/26 08:29:39;;;;;;;3.73;1.77;;;6.60;99.90;;;;;;5018324;28;20083;-82
2023/12/26 08:32:07;;;;;;;5.63;1.70;;;6.60;99.90;;;;;;5019512;28;20049;-82
2023/12/26 08:34:36;;;;;;;3.50;1.60;;;6.60;99.90;;;;;;5017590;28;20045;-82
2023/12/26 08:37:02;;;;;;;5.20;1.90;;;6.60;99.90;;;;;;5018914;28;21181;-81
2023/12/26 08:39:28;;;;;;;3.93;1.80;;;6.70;99.90;;;;;;5017970;28;20049;-82
2023/12/26 08:41:56;;;;;;;5.27;1.80;;;6.70;99.90;;;;;;5018358;28;20112;-81
2023/12/26 08:44:21;;;;;;;5.17;1.70;;;6.70;99.90;;;;;;5017408;28;20049;-81
2023/12/26 08:46:50;;;;;;;9.07;2.47;;;6.80;99.90;;;;;;5017970;28;20038;-81
2023/12/26 08:49:15;;;;;;;4.07;1.60;;;6.80;99.90;;;;;;5016005;28;20030;-81
2023/12/26 08:51:41;;;;;;;5.60;1.60;;;6.80;99.90;;;;;;5012625;28;20029;-80
2023/12/26 08:54:07;;;;;;;3.90;1.67;;;6.90;99.90;;;;;;5013987;28;20046;-80
2023/12/26 08:56:33;;;;;;;3.63;1.70;;;7.00;99.90;;;;;;5008493;28;20038;-80
2023/12/26 08:58:58;;;;;;;3.53;1.50;;;7.10;99.90;;;;;;5009533;28;20025;-80
2023/12/26 09:01:24;;;;;;;4.50;1.70;;;7.20;99.90;;;;;;5015085;28;20496;-80
2023/12/26 09:03:49;;;;;;;4.50;1.70;;;7.20;99.90;;;;;;5015731;28;20043;-80
2023/12/26 09:06:16;;;;;;;5.47;1.93;;;7.30;99.90;;;;;;5015826;28;20239;-79
2023/12/26 09:08:41;;;;;;;4.50;1.43;;;7.30;99.90;;;;;;5015330;28;20424;-80
2023/12/26 09:11:13;;;;;;;5.10;1.77;;;7.40;99.90;;;;;;5017729;28;20026;-82
2023/12/26 09:13:45;;;;;;;3.60;1.60;;;7.50;99.90;;;;;;5018885;28;20038;-82
2023/12/26 09:26:47;;;;;;;4.97;1.77;;;7.70;99.90;;;;;;5250555;23;20070;-80
2023/12/26 09:29:43;;;;;;;4.90;1.40;;;7.80;99.90;;;;;;5000121;28;20030;-82
2023/12/26 09:32:10;;;;;;;5.25;1.70;;;7.90;99.90;;;;;;4993180;28;20069;-82
2023/12/26 09:34:36;;;;;;;4.13;1.63;;;8.00;99.90;;;;;;4994571;28;20037;-81
2023/12/26 09:39:37;;;;;;;4.73;1.60;;;8.10;99.90;;;;;;5390412;23;20055;-79
2023/12/26 09:42:09;;;;;;;4.50;1.83;;;8.20;99.90;;;;;;4994990;28;20030;-81
2023/12/26 09:44:35;;;;;;;2.60;1.50;;;8.20;99.90;;;;;;4995422;28;20104;-79
2023/12/26 09:47:04;;;;;;;5.20;1.53;;;8.30;99.90;;;;;;4990422;28;20030;-80
2023/12/26 09:49:30;;;;;;;5.13;1.57;;;8.40;99.90;;;;;;4990756;28;20026;-80
2023/12/26 09:52:03;;;;;;;3.60;1.40;;;8.60;99.90;;;;;;4988849;28;20098;-82
2023/12/26 09:54:31;;;;;;;2.30;1.47;;;8.80;99.90;;;;;;4993845;28;20030;-78
2023/12/26 09:56:56;;;;;;;3.80;1.77;;;8.90;99.90;;;;;;4994793;28;20023;-78
2023/12/26 09:59:25;;;;;;;2.97;1.50;;;9.00;99.90;;;;;;4997070;28;20065;-82
2023/12/26 10:01:50;;;;;;;5.40;1.70;;;9.00;99.90;;;;;;4983676;28;20084;-78
2023/12/26 10:04:16;;;;;;;3.60;1.67;;;9.10;99.90;;;;;;4979696;28;20030;-78
2023/12/26 10:06:48;;;;;;;4.13;1.50;;;9.20;99.90;;;;;;4978629;28;20181;-82
2023/12/26 10:09:14;;;;;;;3.90;1.70;;;9.20;99.90;;;;;;4979509;28;20030;-81
2023/12/26 10:11:46;;;;;;;3.13;1.33;;;9.20;99.90;;;;;;4980368;28;20493;-82
2023/12/26 10:14:13;;;;;;;3.73;1.60;;;9.20;99.90;;;;;;4979996;28;20694;-81
2023/12/26 10:16:39;;;;;;;5.53;1.50;;;9.40;99.90;;;;;;4979274;28;20027;-79
2023/12/26 10:19:10;;;;;;;5.07;1.60;;;9.40;99.90;;;;;;4981763;28;20049;-79
2023/12/26 10:21:36;;;;;;;5.90;1.50;;;9.50;99.90;;;;;;4982618;28;20434;-79
2023/12/26 10:24:02;;;;;;;4.67;1.53;;;9.40;99.90;;;;;;4981257;28;20032;-80
2023/12/26 10:26:27;;;;;;;4.77;1.60;;;9.40;99.90;;;;;;4980194;28;20066;-79
2023/12/26 10:28:53;;;;;;;5.13;1.50;;;9.40;99.90;;;;;;4979415;28;20037;-80
2023/12/26 10:31:21;;;;;;;4.60;1.80;;;9.40;99.90;;;;;;4978211;28;20033;-82
2023/12/26 10:33:47;;;;;;;3.47;1.30;;;9.30;99.90;;;;;;4978688;28;20037;-80
2023/12/26 10:36:14;;;;;;;3.50;1.73;;;9.30;99.90;;;;;;4979713;28;20088;-80
2023/12/26 10:38:40;;;;;;;5.10;1.50;;;9.30;99.90;;;;;;4978783;28;20401;-80
2023/12/26 10:41:08;;;;;;;3.07;1.47;;;9.20;99.90;;;;;;4978184;28;20045;-80
2023/12/26 10:43:38;;;;;;;3.10;1.50;;;9.20;99.90;;;;;;4982997;28;20082;-80
2023/12/26 10:46:07;;;;;;;5.90;1.60;;;9.20;99.90;;;;;;4979438;28;20030;-80
2023/12/26 10:48:33;;;;;;;3.60;1.50;;;9.20;99.90;;;;;;4979936;28;20031;-81
2023/12/26 10:50:59;;;;;;;4.93;1.90;;;9.20;99.90;;;;;;4978377;28;20023;-82
2023/12/26 10:53:35;;;;;;;5.13;1.43;;;9.20;99.90;;;;;;4977639;28;20065;-81
2023/12/26 10:56:03;;;;;;;3.17;1.40;;;9.20;99.90;;;;;;4978285;28;20439;-80
2023/12/26 10:58:31;;;;;;;4.47;1.87;;;9.20;99.90;;;;;;4978284;28;20035;-81
2023/12/26 11:00:57;;;;;;;3.83;1.70;;;9.20;99.90;;;;;;4979140;28;20035;-80
2023/12/26 11:03:23;;;;;;;5.43;1.60;;;9.10;99.90;;;;;;4979067;28;20063;-79
2023/12/26 11:05:49;;;;;;;3.07;1.63;;;9.10;99.90;;;;;;4977741;28;20023;-80
2023/12/26 11:08:14;;;;;;;2.07;1.43;;;9.10;99.90;;;;;;4979668;28;20034;-82
2023/12/26 11:10:40;;;;;;;5.83;1.50;;;9.10;99.90;;;;;;4980758;28;20058;-81
2023/12/26 11:13:06;;;;;;;3.30;1.30;;;9.10;99.90;;;;;;4977032;28;20026;-80
2023/12/26 11:15:33;;;;;;;3.33;1.40;;;9.10;99.90;;;;;;4978074;28;20179;-80
2023/12/26 11:18:00;;;;;;;3.03;1.57;;;9.10;99.90;;;;;;4978136;28;20019;-79
2023/12/26 11:20:25;;;;;;;3.37;1.57;;;9.20;99.90;;;;;;4980626;28;20409;-79
2023/12/26 11:22:51;;;;;;;4.13;1.50;;;9.10;99.90;;;;;;4980600;28;20030;-79
2023/12/26 11:25:16;;;;;;;5.40;1.60;;;9.10;99.90;;;;;;4980037;28;20162;-79
2023/12/26 11:27:42;;;;;;;3.07;1.30;;;9.10;99.90;;;;;;4983669;28;20018;-78
2023/12/26 11:30:08;;;;;;;5.40;1.67;;;9.10;99.90;;;;;;4982595;28;20038;-79
2023/12/26 11:32:34;;;;;;;4.07;1.80;;;9.10;99.90;;;;;;4982397;28;20516;-79
2023/12/26 11:34:59;;;;;;;5.87;1.60;;;9.10;99.90;;;;;;4981615;28;20038;-81
2023/12/26 11:37:25;;;;;;;6.13;1.90;;;9.20;99.90;;;;;;4977780;28;20142;-79
2023/12/26 11:39:51;;;;;;;4.63;1.63;;;9.20;99.90;;;;;;4982246;28;20149;-79
2023/12/26 11:42:17;;;;;;;5.53;1.60;;;9.20;99.90;;;;;;4983692;28;20046;-80
2023/12/26 11:44:43;;;;;;;5.57;1.70;;;9.30;99.90;;;;;;4981718;28;20053;-79
2023/12/26 11:47:09;;;;;;;5.67;1.60;;;9.30;99.90;;;;;;4983125;28;20034;-80
2023/12/26 11:49:35;;;;;;;3.03;1.40;;;9.30;99.90;;;;;;4982689;28;20090;-78
2023/12/26 11:52:01;;;;;;;3.50;1.43;;;9.30;99.90;;;;;;4982300;28;20041;-79
2023/12/26 11:54:26;;;;;;;6.10;1.73;;;9.20;99.90;;;;;;4984189;28;20042;-79
2023/12/26 11:56:52;;;;;;;6.80;1.87;;;9.30;99.90;;;;;;4981057;28;20465;-80
2023/12/26 11:59:18;;;;;;;8.93;1.70;;;9.30;99.90;;;;;;4982145;28;20033;-80
2023/12/26 12:01:43;;;;;;;4.47;1.80;;;9.30;99.90;;;;;;4975524;28;20401;-81
2023/12/26 12:04:09;;;;;;;4.80;1.80;;;9.30;99.90;;;;;;4972416;28;20026;-81
2023/12/26 12:06:35;;;;;;;6.60;2.37;;;9.30;99.90;;;;;;4975671;28;20065;-81
2023/12/26 12:09:04;;;;;;;5.30;1.70;;;9.30;99.90;;;;;;4975633;28;20042;-80
2023/12/26 12:11:31;;;;;;;3.00;1.37;;;9.40;99.90;;;;;;4975475;28;20502;-81
2023/12/26 12:13:56;;;;;;;6.53;1.77;;;9.40;99.90;;;;;;4974931;28;20577;-81
2023/12/26 12:16:24;;;;;;;4.03;1.90;;;9.40;99.90;;;;;;4974492;28;20034;-79
2023/12/26 12:19:02;;;;;;;5.43;2.30;;;9.40;99.90;;;;;;4977342;28;20033;-81
2023/12/26 12:21:38;;;;;;;6.20;1.60;;;9.40;99.90;;;;;;4983007;28;20022;-80
2023/12/26 12:24:04;;;;;;;5.23;1.77;;;9.40;99.90;;;;;;4982963;28;20054;-79
2023/12/26 12:27:03;;;;;;;3.80;1.83;;;9.40;99.90;;;;;;4983591;28;20050;-81
2023/12/26 12:30:00;;;;;;;5.30;1.60;;;9.50;99.90;;;;;;4946028;28;20039;-80
2023/12/26 12:32:33;;;;;;;4.00;1.77;;;9.50;99.90;;;;;;4978831;28;20090;-77
2023/12/26 12:35:18;;;;;;;4.83;1.63;;;9.40;99.90;;;;;;4980102;28;20030;-79
2023/12/26 12:37:47;;;;;;;3.90;1.60;;;9.40;99.90;;;;;;4978840;28;20037;-79
2023/12/26 12:40:13;;;;;;;4.07;1.60;;;9.40;99.90;;;;;;4974408;28;20053;-79
2023/12/26 12:42:39;;;;;;;5.70;2.00;;;9.40;99.90;;;;;;4974612;28;20026;-79
2023/12/26 12:45:05;;;;;;;4.37;2.00;;;9.40;99.90;;;;;;4978293;28;20622;-80
2023/12/26 12:47:32;;;;;;;4.50;1.97;;;9.30;99.90;;;;;;4977081;28;20038;-79
2023/12/26 12:49:58;;;;;;;4.47;1.70;;;9.40;99.90;;;;;;4975658;28;20022;-78
2023/12/26 12:52:23;;;;;;;4.83;1.80;;;9.30;99.90;;;;;;4975342;28;20037;-80
2023/12/26 12:54:49;;;;;;;5.43;1.70;;;9.20;99.90;;;;;;4979328;28;20185;-79
2023/12/26 12:57:15;;;;;;;3.43;1.73;;;9.20;99.90;;;;;;4973667;28;20121;-79
2023/12/26 12:59:41;;;;;;;4.17;1.50;;;9.20;99.90;;;;;;4983499;28;20054;-80
2023/12/26 13:02:10;;;;;;;4.17;2.10;;;9.10;99.90;;;;;;4983585;28;20034;-80
2023/12/26 13:04:42;;;;;;;6.07;1.90;;;9.10;99.90;;;;;;4966675;28;20155;-79
2023/12/26 13:07:09;;;;;;;3.37;1.43;;;9.10;99.90;;;;;;4984027;28;20042;-80
2023/12/26 13:09:36;;;;;;;7.03;1.50;;;9.10;99.90;;;;;;4972224;28;20500;-79